createdAt,value
2023-01-17T00:02:13.800Z,10.82
2023-01-17T00:05:31.368Z,10.50
2023-01-17T00:08:52.037Z,8.30
2023-01-17T00:11:57.648Z,9.52
2023-01-17T00:15:03.524Z,11.48
2023-01-17T00:18:08.753Z,11.35
2023-01-17T00:21:35.283Z,12.25
2023-01-17T00:25:10.083Z,13.80
2023-01-17T00:28:12.620Z,13.40
2023-01-17T00:31:15.647Z,10.68
2023-01-17T00:34:19.852Z,12.65
2023-01-17T00:37:21.949Z,13.27
2023-01-17T00:43:46.816Z,13.05
2023-01-17T00:47:04.940Z,14.63
2023-01-17T00:50:22.573Z,14.18
2023-01-17T00:53:40.389Z,14.63
2023-01-17T00:56:57.673Z,13.35
2023-01-17T01:00:19.159Z,15.30
2023-01-17T01:03:36.494Z,14.77
2023-01-17T01:06:54.419Z,15.75
2023-01-17T01:10:12.160Z,16.20
2023-01-17T01:13:30.745Z,16.20
2023-01-17T01:16:51.031Z,13.90
2023-01-17T01:20:08.788Z,16.30
2023-01-17T01:23:26.252Z,17.48
2023-01-17T01:26:44.111Z,13.60
2023-01-17T01:30:01.653Z,14.07
2023-01-17T01:33:20.877Z,13.25
2023-01-17T01:36:28.138Z,13.38
2023-01-17T01:39:37.268Z,17.17
2023-01-17T01:42:50.824Z,13.43
2023-01-17T01:46:00.722Z,14.50
2023-01-17T01:49:09.056Z,15.32
2023-01-17T01:52:15.443Z,13.20
2023-01-17T01:55:21.969Z,16.02
2023-01-17T01:58:34.952Z,13.73
2023-01-17T02:01:40.188Z,15.20
2023-01-17T02:04:48.972Z,15.15
2023-01-17T02:08:00.781Z,14.18
2023-01-17T02:11:07.721Z,16.05
2023-01-17T02:14:17.811Z,14.85
2023-01-17T02:17:28.772Z,16.42
2023-01-17T02:20:57.422Z,13.50
2023-01-17T02:24:19.098Z,14.20
2023-01-17T02:27:30.392Z,12.45
2023-01-17T02:30:40.921Z,15.70
2023-01-17T02:33:49.924Z,13.98
2023-01-17T02:36:59.283Z,14.00
2023-01-17T02:40:07.898Z,13.60
2023-01-17T02:43:15.071Z,14.13
2023-01-17T02:46:23.045Z,15.40
2023-01-17T02:49:29.598Z,14.38
2023-01-17T02:52:40.778Z,12.70
2023-01-17T02:55:55.907Z,14.48
2023-01-17T02:59:07.859Z,14.65
2023-01-17T03:02:21.795Z,13.00
2023-01-17T03:05:28.959Z,12.93
2023-01-17T03:08:34.866Z,12.85
2023-01-17T03:11:41.964Z,11.82
2023-01-17T03:14:50.871Z,15.10
2023-01-17T03:18:01.558Z,11.30
2023-01-17T03:21:07.258Z,11.02
2023-01-17T03:24:14.889Z,11.57
2023-01-17T03:27:20.958Z,12.85
2023-01-17T03:30:29.716Z,14.35
2023-01-17T03:33:38.008Z,12.73
2023-01-17T03:36:42.965Z,11.60
2023-01-17T03:39:48.707Z,14.40
2023-01-17T03:42:58.279Z,12.88
2023-01-17T03:46:10.152Z,11.68
2023-01-17T03:49:21.257Z,12.48
2023-01-17T03:52:28.031Z,10.90
2023-01-17T03:55:38.043Z,12.75
2023-01-17T03:58:45.732Z,12.68
2023-01-17T04:01:51.118Z,11.70
2023-01-17T04:04:59.863Z,11.48
2023-01-17T04:08:07.412Z,13.55
2023-01-17T04:11:12.955Z,11.48
2023-01-17T04:14:22.792Z,11.82
2023-01-17T04:17:31.543Z,13.50
2023-01-17T04:20:41.140Z,9.00
2023-01-17T04:23:48.537Z,12.10
2023-01-17T04:26:57.267Z,13.43
2023-01-17T04:30:04.236Z,13.65
2023-01-17T04:33:11.048Z,10.43
2023-01-17T04:36:23.532Z,13.88
2023-01-17T04:39:31.276Z,11.20
2023-01-17T04:42:36.715Z,12.63
2023-01-17T04:45:42.066Z,12.18
2023-01-17T04:48:47.807Z,13.38
2023-01-17T04:51:56.641Z,12.48
2023-01-17T04:55:02.462Z,12.68
2023-01-17T04:58:07.435Z,11.30
2023-01-17T05:01:13.047Z,13.38
2023-01-17T05:04:21.567Z,12.07
2023-01-17T05:07:35.756Z,12.73
2023-01-17T05:10:44.098Z,12.45
2023-01-17T05:13:51.227Z,11.27
2023-01-17T05:16:56.958Z,11.75
2023-01-17T05:20:09.976Z,12.13
2023-01-17T05:23:18.237Z,14.20
2023-01-17T05:26:25.816Z,12.52
2023-01-17T05:29:31.185Z,10.63
2023-01-17T05:32:37.267Z,12.95
2023-01-17T05:35:42.676Z,12.10
2023-01-17T05:38:52.315Z,11.38
2023-01-17T05:41:58.482Z,9.38
2023-01-17T05:45:05.300Z,10.23
2023-01-17T05:48:10.635Z,11.50
2023-01-17T05:51:16.443Z,12.35
2023-01-17T05:54:25.087Z,12.13
2023-01-17T05:57:31.197Z,11.98
2023-01-17T06:00:38.974Z,12.88
2023-01-17T06:03:46.546Z,11.07
2023-01-17T06:06:52.387Z,10.20
2023-01-17T06:10:00.806Z,13.05
2023-01-17T06:13:07.408Z,11.65
2023-01-17T06:16:13.336Z,13.23
2023-01-17T06:19:18.653Z,11.75
2023-01-17T06:22:24.709Z,9.48
2023-01-17T06:25:38.899Z,13.27
2023-01-17T06:28:44.697Z,13.93
2023-01-17T06:31:49.868Z,12.43
2023-01-17T06:34:59.495Z,13.07
2023-01-17T06:38:04.838Z,12.68
2023-01-17T06:41:14.836Z,11.85
2023-01-17T06:44:21.669Z,11.43
2023-01-17T06:47:30.085Z,11.98
2023-01-17T06:50:38.256Z,12.73
2023-01-17T06:53:47.027Z,12.00
2023-01-17T06:56:56.187Z,12.80
2023-01-17T07:00:02.929Z,13.00
2023-01-17T07:03:08.477Z,10.30
2023-01-17T07:06:13.955Z,11.15
2023-01-17T07:09:19.374Z,11.60
2023-01-17T07:12:27.750Z,11.07
2023-01-17T07:15:34.796Z,9.45
2023-01-17T07:18:43.039Z,9.82
2023-01-17T07:21:52.555Z,13.45
2023-01-17T07:24:58.920Z,12.80
2023-01-17T07:28:06.884Z,10.45
2023-01-17T07:31:12.366Z,11.23
2023-01-17T07:34:17.546Z,13.82
2023-01-17T07:37:23.308Z,10.82
2023-01-17T07:40:29.891Z,12.40
2023-01-17T07:43:38.187Z,12.18
2023-01-17T07:46:43.751Z,9.63
2023-01-17T07:49:49.300Z,12.80
2023-01-17T07:52:56.627Z,11.98
2023-01-17T07:56:03.927Z,12.27
2023-01-17T07:59:12.127Z,10.65
2023-01-17T08:02:20.447Z,12.30
2023-01-17T08:05:26.778Z,13.10
2023-01-17T08:08:32.594Z,11.23
2023-01-17T08:11:37.727Z,11.85
2023-01-17T08:14:46.347Z,10.63
2023-01-17T08:17:53.388Z,10.88
2023-01-17T08:21:00.445Z,11.15
2023-01-17T08:24:06.225Z,12.00
2023-01-17T08:27:12.128Z,9.23
2023-01-17T08:30:20.885Z,9.95
2023-01-17T08:33:26.630Z,9.63
2023-01-17T08:36:32.075Z,9.07
2023-01-17T08:39:37.839Z,10.38
2023-01-17T08:42:44.328Z,9.35
2023-01-17T08:45:56.252Z,10.27
2023-01-17T08:49:03.007Z,8.73
2023-01-17T08:52:09.205Z,7.60
2023-01-17T08:55:19.034Z,9.60
2023-01-17T08:58:24.775Z,8.65
2023-01-17T09:01:42.262Z,9.07
2023-01-17T09:04:49.563Z,8.02
2023-01-17T09:07:55.121Z,8.07
2023-01-17T09:11:05.558Z,8.25
2023-01-17T09:14:10.717Z,7.80
2023-01-17T09:17:22.043Z,7.13
2023-01-17T09:20:30.377Z,8.73
2023-01-17T09:23:36.185Z,7.80
2023-01-17T09:26:41.342Z,7.32
2023-01-17T09:29:46.967Z,7.18
2023-01-17T09:33:00.428Z,9.38
2023-01-17T09:36:06.716Z,7.50
2023-01-17T09:39:15.385Z,7.82
2023-01-17T09:42:23.806Z,6.50
2023-01-17T09:45:32.245Z,5.28
2023-01-17T09:48:41.975Z,6.60
2023-01-17T09:51:47.402Z,6.47
2023-01-17T09:54:53.252Z,6.25
2023-01-17T09:58:02.405Z,7.60
2023-01-17T10:01:13.285Z,5.95
2023-01-17T10:04:28.597Z,6.88
2023-01-17T10:07:40.901Z,6.65
2023-01-17T10:10:49.687Z,5.85
2023-01-17T10:14:01.155Z,5.60
2023-01-17T10:17:10.803Z,5.78
2023-01-17T10:20:26.637Z,6.22
2023-01-17T10:23:39.169Z,5.50
2023-01-17T10:26:45.053Z,5.22
2023-01-17T10:29:51.334Z,4.97
2023-01-17T10:33:00.150Z,4.90
2023-01-17T10:36:10.794Z,5.88
2023-01-17T10:39:18.638Z,4.85
2023-01-17T10:42:26.192Z,4.93
2023-01-17T10:45:32.119Z,5.65
2023-01-17T10:48:39.633Z,4.85
2023-01-17T10:52:00.966Z,4.80
2023-01-17T10:55:21.067Z,4.63
2023-01-17T10:58:29.908Z,4.28
2023-01-17T11:01:46.219Z,4.22
2023-01-17T11:04:54.678Z,4.65
2023-01-17T11:08:03.580Z,4.25
2023-01-17T11:11:09.036Z,4.55
2023-01-17T11:14:19.880Z,4.45
2023-01-17T11:17:25.483Z,3.85
2023-01-17T11:20:35.965Z,3.97
2023-01-17T11:23:43.151Z,3.50
2023-01-17T11:26:50.448Z,3.58
2023-01-17T11:30:10.582Z,2.95
2023-01-17T11:33:31.602Z,3.25
2023-01-17T11:36:37.533Z,2.88
2023-01-17T11:39:43.672Z,2.45
2023-01-17T11:42:50.255Z,2.60
2023-01-17T11:46:08.612Z,2.63
2023-01-17T11:49:24.307Z,2.38
2023-01-17T11:52:37.735Z,2.30
2023-01-17T11:55:55.371Z,2.00
2023-01-17T11:59:15.519Z,1.40
2023-01-17T12:02:37.438Z,1.55
2023-01-17T12:05:51.894Z,1.88
2023-01-17T12:09:03.691Z,2.33
2023-01-17T12:12:27.298Z,1.38
2023-01-17T12:15:37.956Z,1.90
2023-01-17T12:18:46.400Z,1.58
2023-01-17T12:22:06.885Z,1.92
2023-01-17T12:25:19.756Z,1.52
2023-01-17T12:28:36.516Z,2.05
2023-01-17T12:31:47.998Z,1.67
2023-01-17T12:34:59.586Z,1.85
2023-01-17T12:38:11.403Z,1.60
2023-01-17T12:41:23.631Z,1.58
2023-01-17T12:44:37.011Z,1.55
2023-01-17T12:47:44.956Z,1.60
2023-01-17T12:50:54.011Z,1.88
2023-01-17T12:54:05.665Z,1.30
2023-01-17T12:57:14.489Z,1.38
2023-01-17T13:00:23.772Z,1.90
2023-01-17T13:03:51.758Z,2.03
2023-01-17T13:07:04.391Z,1.40
2023-01-17T13:10:19.230Z,1.45
2023-01-17T13:13:26.258Z,1.20
2023-01-17T13:16:33.860Z,1.35
2023-01-17T13:19:45.324Z,1.27
2023-01-17T13:22:53.190Z,1.33
2023-01-17T13:26:03.296Z,1.77
2023-01-17T13:29:16.247Z,2.33
2023-01-17T13:32:32.583Z,2.00
2023-01-17T13:35:42.965Z,1.60
2023-01-17T13:39:09.063Z,1.73
2023-01-17T13:42:23.844Z,1.88
2023-01-17T13:45:30.451Z,1.33
2023-01-17T13:48:37.917Z,1.20
2023-01-17T13:51:58.576Z,0.90
2023-01-17T13:55:05.199Z,1.33
2023-01-17T13:58:29.335Z,1.70
2023-01-17T14:01:52.104Z,1.13
2023-01-17T14:05:15.368Z,0.80
2023-01-17T14:08:23.951Z,0.65
2023-01-17T14:11:30.236Z,0.70
2023-01-17T14:14:39.768Z,0.85
2023-01-17T14:17:56.033Z,0.77
2023-01-17T14:21:14.838Z,0.55
2023-01-17T14:24:21.571Z,0.65
2023-01-17T14:27:28.457Z,0.80
2023-01-17T14:30:37.811Z,0.80
2023-01-17T14:33:43.443Z,0.75
2023-01-17T14:36:51.841Z,0.70
2023-01-17T14:39:59.440Z,0.70
2023-01-17T14:43:07.095Z,0.70
2023-01-17T14:46:19.144Z,0.55
2023-01-17T14:49:27.222Z,0.68
2023-01-17T14:52:35.165Z,0.75
2023-01-17T14:55:41.146Z,0.60
2023-01-17T14:58:46.971Z,0.70
2023-01-17T15:02:06.814Z,0.40
2023-01-17T15:05:17.196Z,0.63
2023-01-17T15:08:38.274Z,0.90
2023-01-17T15:11:44.068Z,0.73
2023-01-17T15:14:49.582Z,0.68
2023-01-17T15:17:54.550Z,0.88
2023-01-17T15:21:04.304Z,1.10
2023-01-17T15:24:16.124Z,0.80
2023-01-17T15:27:22.140Z,1.05
2023-01-17T15:30:27.363Z,1.00
2023-01-17T15:33:36.785Z,0.82
2023-01-17T15:36:43.985Z,0.70
2023-01-17T15:39:54.584Z,1.00
2023-01-17T15:43:01.107Z,0.90
2023-01-17T15:46:07.189Z,0.90
2023-01-17T15:49:19.705Z,1.00
2023-01-17T15:55:35.200Z,1.10
2023-01-17T15:58:40.859Z,0.90
2023-01-17T16:01:55.684Z,1.00
2023-01-17T16:05:02.157Z,0.90
2023-01-17T16:08:22.137Z,0.70
2023-01-17T16:11:34.095Z,0.90
2023-01-17T16:14:56.376Z,0.95
2023-01-17T16:18:06.847Z,1.10
2023-01-17T16:21:19.051Z,1.65
2023-01-17T16:24:24.734Z,1.00
2023-01-17T16:27:33.045Z,0.70
2023-01-17T16:30:39.634Z,0.77
2023-01-17T16:33:46.277Z,1.42
2023-01-17T16:36:56.520Z,1.17
2023-01-17T16:40:01.571Z,0.95
2023-01-17T16:43:11.749Z,1.15
2023-01-17T16:46:17.049Z,1.13
2023-01-17T16:49:22.590Z,1.38
2023-01-17T16:52:27.788Z,1.33
2023-01-17T16:55:33.803Z,1.42
2023-01-17T16:58:41.438Z,1.70
2023-01-17T17:01:50.964Z,1.50
2023-01-17T17:04:55.948Z,1.77
2023-01-17T17:08:04.637Z,1.58
2023-01-17T17:11:13.469Z,1.40
2023-01-17T17:14:22.487Z,1.83
2023-01-17T17:17:30.296Z,1.88
2023-01-17T17:20:36.970Z,1.90
2023-01-17T17:23:47.149Z,2.13
2023-01-17T17:26:52.572Z,1.52
2023-01-17T17:30:01.393Z,2.20
2023-01-17T17:33:07.599Z,2.03
2023-01-17T17:36:13.207Z,2.53
2023-01-17T17:39:20.119Z,3.17
2023-01-17T17:42:25.128Z,2.92
2023-01-17T17:45:33.729Z,3.08
2023-01-17T17:48:41.104Z,2.20
2023-01-17T17:51:47.876Z,2.70
2023-01-17T17:54:53.500Z,2.65
2023-01-17T17:58:00.921Z,2.65
2023-01-17T18:01:09.838Z,3.45
2023-01-17T18:04:15.325Z,2.55
2023-01-17T18:07:20.579Z,2.42
2023-01-17T18:10:26.836Z,2.38
2023-01-17T18:13:32.904Z,3.00
2023-01-17T18:16:42.286Z,3.03
2023-01-17T18:19:47.719Z,3.00
2023-01-17T18:22:53.727Z,1.92
2023-01-17T18:25:58.909Z,2.80
2023-01-17T18:29:04.990Z,3.17
2023-01-17T18:32:13.348Z,2.78
2023-01-17T18:35:20.488Z,3.10
2023-01-17T18:38:40.110Z,3.30
2023-01-17T18:41:46.081Z,2.97
2023-01-17T18:44:51.233Z,3.10
2023-01-17T18:47:59.820Z,3.20
2023-01-17T18:51:07.123Z,2.47
2023-01-17T18:54:12.611Z,2.67
2023-01-17T18:57:17.733Z,2.38
2023-01-17T19:00:24.145Z,2.70
2023-01-17T19:03:34.005Z,3.05
2023-01-17T19:06:40.601Z,2.13
2023-01-17T19:09:47.348Z,3.13
2023-01-17T19:12:53.115Z,3.20
2023-01-17T19:16:01.812Z,2.20
2023-01-17T19:19:14.274Z,2.00
2023-01-17T19:22:22.804Z,2.08
2023-01-17T19:25:34.591Z,2.90
2023-01-17T19:28:41.051Z,3.65
2023-01-17T19:31:46.896Z,3.05
2023-01-17T19:34:56.573Z,2.90
2023-01-17T19:38:04.479Z,2.75
2023-01-17T19:41:14.822Z,3.28
2023-01-17T19:44:20.801Z,3.60
2023-01-17T19:47:26.277Z,4.20
2023-01-17T19:50:34.715Z,3.28
2023-01-17T19:53:42.517Z,3.67
2023-01-17T19:56:48.270Z,2.90
2023-01-17T19:59:54.743Z,2.80
2023-01-17T20:03:03.579Z,2.65
2023-01-17T20:06:13.515Z,3.10
2023-01-17T20:09:19.417Z,2.78
2023-01-17T20:12:25.186Z,3.58
2023-01-17T20:15:34.190Z,3.47
2023-01-17T20:18:40.880Z,2.83
2023-01-17T20:21:49.619Z,3.65
2023-01-17T20:24:54.915Z,2.22
2023-01-17T20:28:00.559Z,3.58
2023-01-17T20:31:09.656Z,1.90
2023-01-17T20:34:19.977Z,2.45
2023-01-17T20:37:28.031Z,2.88
2023-01-17T20:40:33.601Z,3.47
2023-01-17T20:43:38.816Z,3.25
2023-01-17T20:46:44.495Z,2.85
2023-01-17T20:49:49.835Z,2.42
2023-01-17T20:52:59.318Z,3.03
2023-01-17T20:56:09.068Z,2.80
2023-01-17T20:59:15.722Z,3.03
2023-01-17T21:02:20.902Z,3.17
2023-01-17T21:05:26.333Z,3.55
2023-01-17T21:08:35.211Z,2.85
2023-01-17T21:11:40.864Z,2.53
2023-01-17T21:14:47.246Z,2.55
2023-01-17T21:17:52.735Z,3.28
2023-01-17T21:21:00.020Z,3.10
2023-01-17T21:24:08.728Z,2.10
2023-01-17T21:27:14.560Z,3.13
2023-01-17T21:30:20.356Z,3.72
2023-01-17T21:33:25.937Z,2.90
2023-01-17T21:36:32.829Z,2.38
2023-01-17T21:39:41.747Z,3.88
2023-01-17T21:42:47.558Z,2.88
2023-01-17T21:45:53.848Z,3.53
2023-01-17T21:49:01.089Z,3.65
2023-01-17T21:52:24.825Z,4.28
2023-01-17T21:55:46.929Z,4.32
2023-01-17T21:58:54.041Z,3.15
2023-01-17T22:01:59.500Z,3.03
2023-01-17T22:05:05.009Z,3.85
2023-01-17T22:08:19.016Z,3.22
2023-01-17T22:11:29.671Z,2.88
2023-01-17T22:14:40.900Z,3.25
2023-01-17T22:17:50.338Z,2.97
2023-01-17T22:20:55.650Z,3.45
2023-01-17T22:24:04.003Z,3.25
2023-01-17T22:27:13.923Z,3.15
2023-01-17T22:30:19.841Z,3.13
2023-01-17T22:33:25.509Z,2.28
2023-01-17T22:36:34.855Z,3.58
2023-01-17T22:39:42.450Z,2.00
2023-01-17T22:42:50.737Z,3.35
2023-01-17T22:46:01.592Z,3.08
2023-01-17T22:49:08.603Z,2.58
2023-01-17T22:52:14.295Z,3.13
2023-01-17T22:55:19.657Z,2.80
2023-01-17T22:58:28.984Z,3.50
2023-01-17T23:01:35.468Z,3.03
2023-01-17T23:04:41.139Z,2.92
2023-01-17T23:07:52.190Z,2.47
2023-01-17T23:11:09.782Z,3.47
2023-01-17T23:14:19.147Z,3.08
2023-01-17T23:17:37.773Z,3.10
2023-01-17T23:20:43.225Z,3.03
2023-01-17T23:23:50.568Z,2.28
2023-01-17T23:27:08.164Z,3.72
2023-01-17T23:30:17.935Z,4.45
2023-01-17T23:33:23.089Z,3.60
2023-01-17T23:36:28.379Z,3.47
2023-01-17T23:39:33.686Z,3.22
2023-01-17T23:42:52.655Z,3.20
2023-01-17T23:46:01.176Z,3.58
2023-01-17T23:49:06.629Z,3.65
2023-01-17T23:52:11.618Z,4.38
2023-01-17T23:55:17.128Z,3.42
2023-01-17T23:58:23.097Z,4.00
